Time;durP1;ratioP1;P1;durP2;ratioP2;P2;SDS_P1;SDS_P2;PMS_P1;PMS_P2;Temp;Humidity;BMP_temperature;BMP_pressure;BME280_temperature;BME280_humidity;BME280_pressure;Samples;Min_cycle;Max_cycle;Signal;HPM_P1;HPM_P2
2021/04/12 00:00:36;;;;;;;32.37;18.70;;;11.80;93.80;;;;;;5008934;28;20216;-70
2021/04/12 00:03:37;;;;;;;32.43;18.77;;;11.90;93.80;;;;;;5006750;28;20227;-70
2021/04/12 00:06:07;;;;;;;33.23;18.53;;;11.80;93.80;;;;;;5022185;28;20215;-70
2021/04/12 00:08:46;;;;;;;29.97;18.67;;;11.80;93.90;;;;;;5005891;28;20243;-70
2021/04/12 00:11:41;;;;;;;40.33;19.57;;;11.80;93.90;;;;;;5008406;28;20243;-70
2021/04/12 00:14:35;;;;;;;30.57;18.77;;;11.70;94.00;;;;;;5017036;28;20749;-70
2021/04/12 00:17:07;;;;;;;39.90;18.93;;;11.70;94.00;;;;;;5012870;28;20222;-70
2021/04/12 00:19:44;;;;;;;34.67;18.47;;;11.70;94.00;;;;;;5023442;28;20222;-70
2021/04/12 00:22:17;;;;;;;35.00;18.80;;;11.70;94.00;;;;;;5021156;28;20219;-70
2021/04/12 00:25:02;;;;;;;26.07;17.47;;;11.70;94.10;;;;;;5005807;28;20553;-70
2021/04/12 00:27:41;;;;;;;31.63;16.77;;;11.70;94.10;;;;;;5021926;28;20219;-70
2021/04/12 00:30:19;;;;;;;30.77;18.47;;;11.70;94.10;;;;;;5007308;28;20683;-70
2021/04/12 00:33:26;;;;;;;30.30;17.07;;;11.70;94.20;;;;;;5027987;28;20564;-70
2021/04/12 00:36:05;;;;;;;35.90;18.13;;;11.70;94.30;;;;;;5021767;28;20686;-70
2021/04/12 00:38:44;;;;;;;38.77;19.20;;;11.60;94.30;;;;;;5025805;28;20218;-70
2021/04/12 00:41:29;;;;;;;40.17;18.93;;;11.60;94.40;;;;;;5022386;28;20235;-70
2021/04/12 00:44:15;;;;;;;44.90;19.43;;;11.60;94.40;;;;;;5005665;28;20311;-69
2021/04/12 00:46:57;;;;;;;56.37;21.40;;;11.60;94.50;;;;;;5012194;28;20214;-69
2021/04/12 00:49:38;;;;;;;46.60;24.60;;;11.70;94.50;;;;;;5021168;28;20210;-69
2021/04/12 00:52:09;;;;;;;53.43;25.03;;;11.70;94.50;;;;;;5020940;28;20221;-69
2021/04/12 00:54:52;;;;;;;42.27;22.93;;;11.60;94.50;;;;;;5039655;28;20678;-70
2021/04/12 00:57:22;;;;;;;52.07;22.50;;;11.60;94.50;;;;;;5040705;28;20234;-70
2021/04/12 01:00:32;;;;;;;39.70;20.87;;;11.60;94.60;;;;;;5025055;28;20221;-70
2021/04/12 01:03:33;;;;;;;43.17;20.93;;;11.70;94.60;;;;;;5028856;28;20552;-70
2021/04/12 01:06:18;;;;;;;54.90;23.17;;;11.60;94.60;;;;;;5045152;28;20530;-70
2021/04/12 01:09:34;;;;;;;42.30;21.80;;;11.60;94.60;;;;;;5044323;28;20211;-70
2021/04/12 01:12:11;;;;;;;52.37;20.90;;;11.60;94.60;;;;;;5031991;28;20215;-70
2021/04/12 01:15:02;;;;;;;59.17;22.77;;;11.60;94.60;;;;;;5049732;28;20228;-70
2021/04/12 01:17:32;;;;;;;56.23;22.90;;;11.60;94.60;;;;;;5029127;28;20214;-69
2021/04/12 01:20:16;;;;;;;45.87;22.43;;;11.60;94.60;;;;;;5021531;28;20217;-70
2021/04/12 01:23:04;;;;;;;47.80;22.33;;;11.60;94.70;;;;;;5037952;28;20833;-70
2021/04/12 01:26:21;;;;;;;41.50;20.40;;;11.60;94.70;;;;;;5027410;28;20210;-70
2021/04/12 01:29:28;;;;;;;47.40;22.23;;;11.60;94.70;;;;;;5036956;28;20234;-70
2021/04/12 01:32:19;;;;;;;41.90;22.07;;;11.60;94.70;;;;;;5039520;28;20207;-70
2021/04/12 01:35:27;;;;;;;44.00;21.70;;;11.60;94.70;;;;;;5043681;28;20230;-70
2021/04/12 01:38:32;;;;;;;48.40;21.87;;;11.60;94.70;;;;;;5030226;28;20207;-70
2021/04/12 01:41:21;;;;;;;44.47;21.40;;;11.60;94.70;;;;;;5028521;28;20218;-70
2021/04/12 01:44:13;;;;;;;47.37;21.67;;;11.60;94.70;;;;;;5032436;28;20211;-70
2021/04/12 01:47:05;;;;;;;52.80;22.27;;;11.60;94.70;;;;;;5022425;28;20680;-70
2021/04/12 01:50:05;;;;;;;52.30;23.57;;;11.70;94.80;;;;;;5026245;28;20214;-70
2021/04/12 01:52:47;;;;;;;47.43;22.03;;;11.70;94.70;;;;;;5043696;28;20208;-70
2021/04/12 01:55:30;;;;;;;67.83;23.50;;;11.70;94.70;;;;;;5044734;28;20206;-70
2021/04/12 01:58:05;;;;;;;57.30;24.90;;;11.70;94.70;;;;;;5036419;28;20207;-70
2021/04/12 02:01:01;;;;;;;49.77;22.83;;;11.70;94.70;;;;;;5043409;28;20564;-70
2021/04/12 02:04:06;;;;;;;61.60;24.60;;;11.70;94.70;;;;;;5032699;28;20215;-70
2021/04/12 02:06:58;;;;;;;53.80;24.20;;;11.70;94.70;;;;;;5038902;28;20206;-70
2021/04/12 02:09:51;;;;;;;56.63;24.53;;;11.70;94.70;;;;;;5022774;28;20210;-70
2021/04/12 02:12:37;;;;;;;49.50;23.47;;;11.70;94.70;;;;;;4999554;28;20213;-70
2021/04/12 02:15:23;;;;;;;49.43;22.37;;;11.70;94.70;;;;;;5031334;28;20727;-70
2021/04/12 02:18:11;;;;;;;54.40;23.60;;;11.70;94.70;;;;;;5022845;28;20207;-70
2021/04/12 02:20:59;;;;;;;52.07;23.07;;;11.70;94.70;;;;;;5033297;28;20217;-70
2021/04/12 02:23:34;;;;;;;42.97;21.83;;;11.70;94.70;;;;;;5044848;28;20298;-70
2021/04/12 02:26:23;;;;;;;49.70;21.77;;;11.70;94.80;;;;;;5038465;28;20218;-70
2021/04/12 02:28:53;;;;;;;40.77;21.27;;;11.70;94.80;;;;;;5040881;28;20234;-70
2021/04/12 02:31:38;;;;;;;43.97;21.97;;;11.80;94.80;;;;;;5033667;28;20262;-70
2021/04/12 02:34:47;;;;;;;49.83;21.77;;;11.80;94.80;;;;;;5043704;28;20229;-70
2021/04/12 02:37:26;;;;;;;39.30;18.90;;;11.80;94.80;;;;;;4999621;28;20210;-70
2021/04/12 02:40:32;;;;;;;51.17;20.47;;;11.80;94.80;;;;;;5039994;28;20251;-70
2021/04/12 02:43:10;;;;;;;40.47;20.00;;;11.80;94.80;;;;;;5040265;28;20654;-70
2021/04/12 02:46:14;;;;;;;43.63;18.90;;;11.80;94.80;;;;;;5047286;28;20694;-70
2021/04/12 02:49:04;;;;;;;44.00;21.67;;;11.80;94.80;;;;;;5048016;28;20261;-70
2021/04/12 02:52:01;;;;;;;47.33;19.87;;;11.90;94.80;;;;;;5030210;28;20237;-70
2021/04/12 02:54:46;;;;;;;38.77;19.17;;;11.80;94.80;;;;;;5047316;28;20876;-69
2021/04/12 02:57:37;;;;;;;47.37;21.07;;;11.90;94.70;;;;;;5044870;28;20219;-70
2021/04/12 03:00:12;;;;;;;52.90;20.40;;;11.90;94.70;;;;;;5025635;28;20218;-69
2021/04/12 03:03:01;;;;;;;43.33;21.07;;;11.80;94.70;;;;;;5026830;28;20218;-69
2021/04/12 03:05:51;;;;;;;42.60;20.63;;;11.80;94.70;;;;;;5046329;28;20222;-69
2021/04/12 03:08:43;;;;;;;50.20;20.43;;;11.80;94.80;;;;;;5045662;28;20211;-69
2021/04/12 03:11:46;;;;;;;42.70;20.57;;;11.80;94.80;;;;;;5041583;28;20732;-69
2021/04/12 03:14:27;;;;;;;45.03;20.87;;;11.80;94.80;;;;;;5026670;28;20217;-69
2021/04/12 03:17:02;;;;;;;42.87;21.07;;;11.80;94.80;;;;;;5043457;28;20218;-69
2021/04/12 03:20:06;;;;;;;55.63;22.77;;;11.80;94.80;;;;;;5043155;28;20612;-69
2021/04/12 03:23:17;;;;;;;45.03;21.57;;;11.80;94.80;;;;;;5050142;28;20210;-69
2021/04/12 03:26:08;;;;;;;39.97;20.17;;;11.80;94.80;;;;;;5046358;28;20214;-69
2021/04/12 03:29:04;;;;;;;40.13;19.40;;;11.80;94.90;;;;;;5044776;28;20223;-69
2021/04/12 03:32:03;;;;;;;46.43;19.80;;;11.80;94.90;;;;;;5040281;28;20239;-69
2021/04/12 03:34:30;;;;;;;42.87;18.50;;;11.80;94.90;;;;;;5046473;28;20206;-69
2021/04/12 03:37:03;;;;;;;39.93;19.33;;;11.70;94.90;;;;;;5028180;28;20217;-69
2021/04/12 03:39:52;;;;;;;39.30;18.17;;;11.70;95.00;;;;;;5042684;28;20293;-69
2021/04/12 03:42:36;;;;;;;35.93;18.43;;;11.70;95.00;;;;;;5043758;28;20294;-69
2021/04/12 03:45:20;;;;;;;38.33;18.70;;;11.70;95.10;;;;;;5041394;28;20601;-69
2021/04/12 03:47:58;;;;;;;44.97;18.37;;;11.70;95.10;;;;;;5042844;28;20213;-69
2021/04/12 03:50:30;;;;;;;36.90;18.03;;;11.70;95.10;;;;;;5046138;28;20237;-69
2021/04/12 03:53:22;;;;;;;43.43;18.07;;;11.70;95.10;;;;;;5048118;28;20251;-69
2021/04/12 03:56:22;;;;;;;34.57;18.33;;;11.70;95.10;;;;;;5053305;28;20281;-69
2021/04/12 03:59:18;;;;;;;36.00;17.80;;;11.70;95.10;;;;;;5027026;28;20620;-69
2021/04/12 04:02:08;;;;;;;38.40;19.13;;;11.80;95.20;;;;;;5046675;28;20254;-69
2021/04/12 04:05:00;;;;;;;34.10;18.60;;;11.80;95.10;;;;;;5031007;28;20716;-69
2021/04/12 04:07:51;;;;;;;32.27;18.23;;;11.80;95.20;;;;;;5042757;28;20207;-69
2021/04/12 04:10:41;;;;;;;40.73;18.00;;;11.80;95.20;;;;;;5040583;28;20327;-69
2021/04/12 04:13:48;;;;;;;35.87;16.67;;;11.80;95.20;;;;;;5034971;28;20211;-69
2021/04/12 04:16:15;;;;;;;28.97;16.17;;;11.80;95.30;;;;;;5047832;28;20250;-69
2021/04/12 04:19:00;;;;;;;31.67;17.47;;;11.80;95.20;;;;;;5032764;28;20206;-69
2021/04/12 04:21:52;;;;;;;33.37;16.37;;;11.80;95.30;;;;;;5043399;28;20210;-69
2021/04/12 04:24:56;;;;;;;25.23;15.50;;;11.80;95.30;;;;;;5045460;28;20210;-69
2021/04/12 04:27:56;;;;;;;29.67;15.80;;;11.80;95.30;;;;;;5042455;28;20302;-69
2021/04/12 04:31:04;;;;;;;25.67;16.13;;;11.80;95.30;;;;;;5018293;28;20237;-69
2021/04/12 04:34:01;;;;;;;28.23;15.53;;;11.80;95.40;;;;;;5049394;28;20226;-69
2021/04/12 04:36:40;;;;;;;25.43;16.03;;;11.90;95.40;;;;;;5027490;28;20211;-69
2021/04/12 04:39:18;;;;;;;26.27;16.00;;;11.90;95.40;;;;;;5042915;28;20643;-69
2021/04/12 04:42:11;;;;;;;31.30;17.40;;;11.90;95.50;;;;;;5039315;28;20337;-69
2021/04/12 04:44:57;;;;;;;25.27;16.47;;;11.90;95.50;;;;;;5038316;28;20207;-69
2021/04/12 04:47:45;;;;;;;27.10;17.00;;;11.90;95.50;;;;;;5041219;28;20221;-69
2021/04/12 04:50:27;;;;;;;29.53;17.10;;;11.90;95.50;;;;;;5048639;28;20234;-69
2021/04/12 04:53:29;;;;;;;32.37;17.97;;;11.90;95.50;;;;;;5045310;28;20608;-69
2021/04/12 04:56:14;;;;;;;31.73;17.37;;;11.90;95.80;;;;;;5041652;28;20220;-69
2021/04/12 04:59:00;;;;;;;25.90;18.07;;;12.00;95.60;;;;;;5046569;28;20540;-69
2021/04/12 05:01:26;;;;;;;33.77;18.23;;;11.90;95.60;;;;;;5040528;28;20275;-69
2021/04/12 05:04:14;;;;;;;33.67;19.47;;;12.00;95.60;;;;;;5042013;28;20524;-69
2021/04/12 05:07:16;;;;;;;42.43;19.47;;;12.00;95.60;;;;;;5026879;28;20233;-69
2021/04/12 05:10:20;;;;;;;33.23;18.23;;;12.00;95.60;;;;;;5042467;28;20206;-69
2021/04/12 05:13:14;;;;;;;42.53;19.00;;;12.00;95.60;;;;;;5040228;28;20228;-69
2021/04/12 05:16:03;;;;;;;34.70;20.10;;;12.00;95.60;;;;;;5042540;28;20653;-69
2021/04/12 05:19:03;;;;;;;45.93;20.93;;;12.00;95.60;;;;;;5045092;28;20211;-70
2021/04/12 05:22:01;;;;;;;32.67;18.10;;;12.00;95.60;;;;;;5038967;28;20214;-69
2021/04/12 05:24:28;;;;;;;36.80;19.23;;;12.00;95.60;;;;;;5041145;28;20658;-69
2021/04/12 05:27:27;;;;;;;36.00;18.23;;;12.00;95.60;;;;;;5040013;28;20214;-69
2021/04/12 05:30:07;;;;;;;39.67;18.67;;;12.00;95.70;;;;;;5028793;28;20239;-69
2021/04/12 05:33:11;;;;;;;33.40;17.83;;;12.00;95.70;;;;;;5048515;28;20225;-69
2021/04/12 05:36:05;;;;;;;34.90;18.27;;;12.00;95.70;;;;;;5043063;28;20210;-69
2021/04/12 05:39:10;;;;;;;32.70;17.17;;;12.00;95.70;;;;;;5047264;28;20666;-69
2021/04/12 05:41:55;;;;;;;31.33;17.83;;;12.00;95.70;;;;;;5023442;28;20313;-69
2021/04/12 05:44:41;;;;;;;34.20;16.17;;;12.10;95.80;;;;;;5043046;28;20240;-69
2021/04/12 05:47:37;;;;;;;29.53;16.93;;;12.10;95.80;;;;;;5048268;28;20225;-69
2021/04/12 05:50:41;;;;;;;24.87;14.97;;;12.10;95.80;;;;;;5021772;28;20234;-69
2021/04/12 05:53:48;;;;;;;19.03;13.53;;;12.20;95.80;;;;;;5045313;28;20226;-69
2021/04/12 05:56:45;;;;;;;28.10;15.97;;;12.20;95.80;;;;;;5045497;28;20560;-69
2021/04/12 05:59:55;;;;;;;25.70;14.70;;;12.20;95.80;;;;;;5046790;28;20214;-69
2021/04/12 06:02:24;;;;;;;29.17;15.30;;;12.20;95.80;;;;;;5043989;28;20304;-69
2021/04/12 06:05:05;;;;;;;28.80;16.00;;;12.30;95.80;;;;;;5036832;28;20213;-69
2021/04/12 06:07:50;;;;;;;30.10;15.33;;;12.30;95.80;;;;;;5021379;28;20207;-69
2021/04/12 06:10:30;;;;;;;30.60;16.27;;;12.40;95.80;;;;;;5042282;28;20701;-69
2021/04/12 06:13:34;;;;;;;34.83;17.33;;;12.40;95.80;;;;;;5027684;28;20317;-69
2021/04/12 06:16:31;;;;;;;32.23;16.63;;;12.50;95.80;;;;;;5045694;28;20214;-69
2021/04/12 06:19:33;;;;;;;27.53;15.43;;;12.50;95.70;;;;;;5042473;28;20674;-69
2021/04/12 06:22:15;;;;;;;26.40;14.57;;;12.60;95.70;;;;;;5044317;28;20236;-69
2021/04/12 06:25:16;;;;;;;22.40;14.83;;;12.60;95.60;;;;;;5027357;28;20206;-68
2021/04/12 06:28:29;;;;;;;20.70;13.90;;;12.70;95.70;;;;;;4981285;28;20229;-68
2021/04/12 06:31:07;;;;;;;20.93;12.70;;;12.70;95.60;;;;;;4964468;28;20237;-68
2021/04/12 06:34:18;;;;;;;20.43;13.13;;;12.80;95.60;;;;;;4961904;28;20236;-68
2021/04/12 06:37:16;;;;;;;15.47;12.20;;;12.90;95.50;;;;;;4950996;28;20228;-70
2021/04/12 06:40:12;;;;;;;19.17;12.10;;;12.90;95.50;;;;;;4962048;28;20213;-70
2021/04/12 06:42:59;;;;;;;22.80;13.73;;;12.90;95.40;;;;;;5006630;28;20218;-69
2021/04/12 06:46:04;;;;;;;19.63;13.60;;;13.00;95.40;;;;;;5043674;28;20250;-69
2021/04/12 06:49:02;;;;;;;18.83;13.57;;;13.00;95.30;;;;;;5009848;28;20207;-69
2021/04/12 06:52:05;;;;;;;19.27;12.20;;;13.10;95.30;;;;;;5042519;28;20604;-69
2021/04/12 06:55:11;;;;;;;24.57;13.37;;;13.10;95.20;;;;;;5040110;28;20281;-69
2021/04/12 06:57:56;;;;;;;19.93;12.73;;;13.20;95.20;;;;;;5025599;28;20223;-69
2021/04/12 07:00:41;;;;;;;17.93;12.00;;;13.20;95.10;;;;;;5046158;28;20308;-69
2021/04/12 07:03:45;;;;;;;15.67;11.73;;;13.20;95.10;;;;;;5042935;28;20521;-70
2021/04/12 07:06:35;;;;;;;18.70;12.93;;;13.20;95.10;;;;;;5026178;28;20218;-69
2021/04/12 07:09:32;;;;;;;15.07;11.57;;;13.30;95.10;;;;;;5027653;28;20642;-69
2021/04/12 07:12:12;;;;;;;19.50;12.97;;;13.30;95.00;;;;;;5026090;28;20686;-70
2021/04/12 07:14:47;;;;;;;18.63;12.20;;;13.30;95.00;;;;;;5033390;28;20222;-69
2021/04/12 07:17:59;;;;;;;19.37;13.23;;;13.30;95.00;;;;;;5048287;28;20205;-70
2021/04/12 07:21:03;;;;;;;19.70;13.83;;;13.40;95.00;;;;;;5043028;28;20210;-70
2021/04/12 07:23:36;;;;;;;21.17;15.27;;;13.40;95.00;;;;;;5037342;28;20460;-69
2021/04/12 07:26:17;;;;;;;22.73;15.87;;;13.40;94.90;;;;;;5044445;28;20301;-70
2021/04/12 07:29:19;;;;;;;25.07;16.73;;;13.40;94.90;;;;;;5045373;28;20203;-72
2021/04/12 07:32:19;;;;;;;25.90;16.53;;;13.50;94.90;;;;;;5022362;28;20249;-70
2021/04/12 07:34:54;;;;;;;26.43;17.40;;;13.50;94.80;;;;;;4946860;29;20763;-71
2021/04/12 07:37:37;;;;;;;24.07;18.53;;;13.60;94.80;;;;;;4951207;29;20205;-71
2021/04/12 07:40:14;;;;;;;27.90;18.47;;;13.60;94.80;;;;;;5007746;28;20414;-72
2021/04/12 07:43:02;;;;;;;27.57;17.70;;;13.60;94.80;;;;;;5032871;28;20210;-72
2021/04/12 07:46:03;;;;;;;28.10;19.83;;;13.60;94.80;;;;;;5023696;28;20630;-71
2021/04/12 07:49:01;;;;;;;26.97;19.27;;;13.80;94.70;;;;;;5035982;28;20214;-71
2021/04/12 07:52:05;;;;;;;24.23;18.43;;;13.80;94.70;;;;;;5039483;28;20445;-72
2021/04/12 07:54:50;;;;;;;26.23;19.23;;;13.90;94.60;;;;;;5006798;28;20238;-72
2021/04/12 07:57:37;;;;;;;23.20;18.03;;;13.90;94.50;;;;;;5021511;28;20219;-72
2021/04/12 08:00:31;;;;;;;28.50;19.77;;;13.90;94.50;;;;;;5003721;28;20265;-71
2021/04/12 08:03:24;;;;;;;26.00;18.40;;;14.00;94.50;;;;;;5022595;28;20208;-72
2021/04/12 08:06:05;;;;;;;26.37;19.03;;;14.00;94.40;;;;;;5042056;28;20260;-72
2021/04/12 08:08:51;;;;;;;25.67;19.03;;;14.10;94.30;;;;;;5025363;28;20217;-72
2021/04/12 08:12:02;;;;;;;21.80;17.80;;;14.20;94.30;;;;;;5039207;28;20239;-72
2021/04/12 08:15:06;;;;;;;21.57;17.80;;;14.30;94.20;;;;;;5027355;28;20206;-72
2021/04/12 08:18:12;;;;;;;21.03;17.80;;;14.30;94.20;;;;;;5034732;28;20206;-72
2021/04/12 08:21:00;;;;;;;19.70;17.10;;;14.40;94.10;;;;;;5023893;28;20241;-71
2021/04/12 08:23:45;;;;;;;18.17;15.70;;;14.50;93.90;;;;;;5038072;28;20326;-73
2021/04/12 08:26:43;;;;;;;18.87;16.30;;;14.50;93.80;;;;;;5042604;28;20210;-72
2021/04/12 08:29:41;;;;;;;17.83;16.07;;;14.50;93.70;;;;;;5051434;28;20221;-73
2021/04/12 08:32:20;;;;;;;20.43;17.60;;;14.50;93.60;;;;;;5046395;28;20303;-72
2021/04/12 08:35:05;;;;;;;19.67;17.57;;;14.50;93.60;;;;;;5023440;28;20583;-72
2021/04/12 08:37:51;;;;;;;22.63;18.10;;;14.40;93.60;;;;;;5043072;28;20202;-71
2021/04/12 08:40:36;;;;;;;23.30;19.23;;;14.40;93.50;;;;;;5039987;28;20323;-72
2021/04/12 08:43:40;;;;;;;25.27;19.13;;;14.40;93.50;;;;;;5030882;28;20646;-71
2021/04/12 08:46:35;;;;;;;28.30;20.77;;;14.40;93.50;;;;;;5023365;28;20221;-72
2021/04/12 08:49:22;;;;;;;25.90;19.63;;;14.40;93.50;;;;;;5031427;28;20228;-72
2021/04/12 08:52:28;;;;;;;25.53;20.40;;;14.40;93.50;;;;;;5033744;28;20273;-72
2021/04/12 08:55:16;;;;;;;25.50;20.77;;;14.40;93.50;;;;;;5031505;28;20230;-72
2021/04/12 08:57:52;;;;;;;28.93;21.80;;;14.50;93.40;;;;;;5041818;28;20204;-72
2021/04/12 09:00:48;;;;;;;29.07;22.97;;;14.60;93.30;;;;;;5027888;28;20246;-73
2021/04/12 09:03:33;;;;;;;30.20;22.77;;;14.70;93.30;;;;;;5010488;28;20682;-72
2021/04/12 09:06:32;;;;;;;36.73;24.80;;;14.80;93.30;;;;;;5039666;28;20211;-72
2021/04/12 09:09:07;;;;;;;30.33;24.67;;;14.90;93.20;;;;;;5028391;28;20658;-71
2021/04/12 09:12:09;;;;;;;34.50;25.50;;;15.10;93.10;;;;;;5022980;28;20317;-72
2021/04/12 09:15:01;;;;;;;29.17;23.53;;;15.20;93.00;;;;;;5039845;28;20244;-73
2021/04/12 09:18:14;;;;;;;30.90;25.27;;;15.40;92.70;;;;;;5044861;28;20221;-72
2021/04/12 09:21:05;;;;;;;26.13;21.83;;;15.60;92.60;;;;;;5027459;28;20278;-74
2021/04/12 09:23:46;;;;;;;25.37;21.93;;;15.90;92.30;;;;;;5037825;28;20215;-71
2021/04/12 09:26:35;;;;;;;29.13;24.50;;;16.10;91.90;;;;;;5038458;28;20219;-72
2021/04/12 09:29:24;;;;;;;27.53;24.30;;;16.20;91.90;;;;;;5045406;28;20683;-70
2021/04/12 09:32:38;;;;;;;25.53;21.50;;;16.40;91.70;;;;;;5036305;28;20749;-70
2021/04/12 09:35:26;;;;;;;25.93;21.93;;;16.50;91.40;;;;;;5044049;28;20252;-72
2021/04/12 09:37:56;;;;;;;28.30;23.20;;;16.60;91.20;;;;;;5043926;28;20309;-71
2021/04/12 09:40:26;;;;;;;24.27;21.77;;;16.60;91.10;;;;;;5022388;28;20530;-71
2021/04/12 09:43:04;;;;;;;23.00;20.60;;;16.60;90.90;;;;;;5033156;28;20301;-72
2021/04/12 09:45:34;;;;;;;21.80;19.43;;;16.60;90.70;;;;;;5026046;28;20228;-71
2021/04/12 09:48:23;;;;;;;22.73;20.27;;;16.70;90.60;;;;;;5043024;28;20222;-70
2021/04/12 09:51:52;;;;;;;24.97;21.63;;;16.90;90.80;;;;;;5017905;28;20237;-70
2021/04/12 09:54:22;;;;;;;21.57;19.27;;;17.00;90.50;;;;;;4992350;28;20705;-71
2021/04/12 09:56:49;;;;;;;22.30;19.90;;;17.20;90.20;;;;;;5020330;28;20208;-71
2021/04/12 09:59:47;;;;;;;23.57;20.73;;;17.40;89.90;;;;;;5022426;28;20243;-70
2021/04/12 10:02:42;;;;;;;22.10;19.70;;;17.60;89.30;;;;;;5020586;28;20219;-71
2021/04/12 10:05:36;;;;;;;19.37;17.37;;;17.80;89.00;;;;;;5021603;28;20550;-72
2021/04/12 10:08:07;;;;;;;21.53;18.60;;;18.10;87.00;;;;;;5019019;28;20297;-71
2021/04/12 10:11:02;;;;;;;19.97;18.07;;;18.30;87.50;;;;;;5024043;28;20323;-71
2021/04/12 10:13:49;;;;;;;25.10;19.77;;;18.40;86.40;;;;;;5013965;28;20218;-71
2021/04/12 10:16:26;;;;;;;22.37;20.03;;;18.40;86.10;;;;;;5013486;28;20303;-71
2021/04/12 10:19:17;;;;;;;21.87;19.77;;;18.40;85.90;;;;;;5022306;28;20270;-71
2021/04/12 10:22:12;;;;;;;21.73;19.43;;;18.40;86.10;;;;;;5025483;28;20735;-71
2021/04/12 10:24:59;;;;;;;20.47;18.40;;;18.50;85.30;;;;;;5021265;28;20237;-71
2021/04/12 10:27:42;;;;;;;22.27;20.07;;;18.40;84.40;;;;;;5038238;28;20215;-72
2021/04/12 10:30:15;;;;;;;22.37;20.00;;;18.30;84.10;;;;;;5017898;28;20214;-73
2021/04/12 10:33:00;;;;;;;22.77;20.37;;;18.10;84.40;;;;;;5022545;28;20207;-72
2021/04/12 10:35:39;;;;;;;21.13;19.03;;;18.10;84.90;;;;;;5021868;28;20630;-72
2021/04/12 10:38:20;;;;;;;21.07;18.97;;;18.00;84.50;;;;;;5019982;28;20703;-71
2021/04/12 10:40:50;;;;;;;22.50;20.20;;;17.80;84.60;;;;;;5019087;28;20558;-71
2021/04/12 10:43:55;;;;;;;21.60;19.50;;;17.70;85.20;;;;;;5019335;28;20208;-72
2021/04/12 10:46:57;;;;;;;21.17;18.97;;;17.60;85.80;;;;;;5019925;28;20240;-71
2021/04/12 10:49:44;;;;;;;21.83;19.67;;;17.60;86.20;;;;;;5016312;28;20219;-72
2021/04/12 10:52:28;;;;;;;21.97;19.77;;;17.50;86.80;;;;;;5019659;28;20508;-72
2021/04/12 10:55:12;;;;;;;20.93;18.90;;;17.60;87.60;;;;;;5040994;28;20263;-72
2021/04/12 10:57:43;;;;;;;23.97;20.20;;;17.70;86.60;;;;;;5043543;28;20210;-71
2021/04/12 11:00:41;;;;;;;23.60;21.10;;;17.60;86.80;;;;;;5025886;28;20229;-70
2021/04/12 11:03:14;;;;;;;21.57;19.50;;;17.60;86.50;;;;;;5044239;28;20215;-71
2021/04/12 11:05:46;;;;;;;20.20;18.23;;;17.70;86.90;;;;;;5027441;28;20210;-70
2021/04/12 11:08:30;;;;;;;20.97;18.97;;;17.70;86.60;;;;;;5029443;28;20237;-70
2021/04/12 11:11:15;;;;;;;18.97;16.83;;;17.70;86.40;;;;;;5028237;28;20234;-71
2021/04/12 11:13:47;;;;;;;20.13;18.00;;;17.80;86.40;;;;;;5040439;28;20226;-70
2021/04/12 11:16:38;;;;;;;19.13;17.23;;;17.90;86.40;;;;;;5039408;28;20225;-71
2021/04/12 11:19:09;;;;;;;19.13;16.90;;;17.90;86.10;;;;;;5044885;28;20621;-71
2021/04/12 11:21:39;;;;;;;18.47;16.43;;;17.90;85.80;;;;;;5054596;28;20219;-70
2021/04/12 11:24:27;;;;;;;19.07;16.33;;;17.90;85.70;;;;;;5043170;28;20332;-70
2021/04/12 11:27:06;;;;;;;16.43;14.37;;;17.80;85.90;;;;;;5042819;28;20219;-71
2021/04/12 11:29:41;;;;;;;14.80;13.30;;;17.80;86.30;;;;;;5040755;28;20242;-72
2021/04/12 11:32:30;;;;;;;14.30;12.90;;;17.70;86.40;;;;;;5045106;28;20234;-72
2021/04/12 11:35:16;;;;;;;13.53;12.17;;;17.60;86.80;;;;;;5042052;28;20242;-72
2021/04/12 11:37:55;;;;;;;14.30;12.90;;;17.50;87.20;;;;;;5024958;28;20667;-72
2021/04/12 11:40:29;;;;;;;15.40;12.73;;;17.40;87.30;;;;;;5042028;28;20221;-72
2021/04/12 11:43:03;;;;;;;14.90;12.73;;;17.30;87.70;;;;;;5020410;28;20221;-71
2021/04/12 11:45:43;;;;;;;17.80;13.20;;;17.30;88.30;;;;;;5045107;28;20233;-72
2021/04/12 11:48:13;;;;;;;13.67;12.23;;;17.20;88.40;;;;;;5043486;28;20245;-71
2021/04/12 11:50:45;;;;;;;14.53;11.83;;;17.20;88.70;;;;;;5043791;28;20265;-71
2021/04/12 11:53:27;;;;;;;13.13;11.77;;;17.20;88.80;;;;;;5024858;28;20238;-71
2021/04/12 11:56:37;;;;;;;11.83;10.63;;;17.20;88.90;;;;;;5039932;28;20635;-72
2021/04/12 11:59:13;;;;;;;13.33;11.47;;;17.20;88.70;;;;;;4957993;28;20218;-71
2021/04/12 12:01:48;;;;;;;12.13;10.87;;;17.30;88.80;;;;;;5033327;28;20301;-70
2021/04/12 12:04:37;;;;;;;11.57;10.37;;;17.40;88.80;;;;;;5042449;28;20246;-71
2021/04/12 12:07:13;;;;;;;12.20;9.37;;;17.50;88.50;;;;;;5040851;28;20206;-71
2021/04/12 12:09:47;;;;;;;8.97;8.10;;;17.50;88.60;;;;;;5033713;28;20213;-71
2021/04/12 12:12:33;;;;;;;8.40;7.47;;;17.50;88.80;;;;;;5027086;28;20269;-71
2021/04/12 12:15:09;;;;;;;10.10;9.17;;;17.50;88.70;;;;;;5046423;28;20210;-71
2021/04/12 12:18:03;;;;;;;8.50;7.67;;;17.50;88.80;;;;;;5041013;28;20229;-71
2021/04/12 12:20:53;;;;;;;8.23;7.43;;;17.40;89.00;;;;;;5039939;28;20276;-71
2021/04/12 12:23:41;;;;;;;8.67;7.33;;;17.50;89.30;;;;;;5043906;28;20264;-71
2021/04/12 12:26:21;;;;;;;9.77;7.97;;;17.40;89.30;;;;;;5038402;28;20207;-71
2021/04/12 12:29:37;;;;;;;8.87;7.97;;;17.40;89.70;;;;;;5041967;28;20215;-71
2021/04/12 12:32:14;;;;;;;8.17;7.37;;;17.50;90.00;;;;;;5037828;28;20471;-71
2021/04/12 12:34:57;;;;;;;12.03;7.70;;;17.60;90.00;;;;;;5040909;28;20211;-71
2021/04/12 12:37:38;;;;;;;9.23;7.03;;;17.70;90.00;;;;;;5024421;28;20568;-71
2021/04/12 12:40:13;;;;;;;7.97;7.20;;;17.70;89.90;;;;;;5025056;28;20207;-71
2021/04/12 12:42:46;;;;;;;9.30;7.47;;;17.80;90.00;;;;;;5040461;28;20605;-72
2021/04/12 12:45:17;;;;;;;7.57;6.40;;;17.90;89.90;;;;;;5040855;28;20265;-71
2021/04/12 12:47:50;;;;;;;7.57;5.90;;;18.00;89.60;;;;;;5039525;28;20215;-71
2021/04/12 12:50:24;;;;;;;5.63;5.13;;;18.00;89.40;;;;;;5045085;28;20230;-72
2021/04/12 12:53:00;;;;;;;7.80;5.60;;;18.00;88.80;;;;;;5036304;28;20208;-71
2021/04/12 12:55:32;;;;;;;6.23;5.40;;;18.00;89.00;;;;;;5040140;28;20210;-71
2021/04/12 12:58:10;;;;;;;6.80;5.17;;;18.00;89.10;;;;;;5044217;28;20561;-71
2021/04/12 13:00:42;;;;;;;6.77;4.40;;;18.10;89.50;;;;;;5040288;28;20211;-72
2021/04/12 13:03:28;;;;;;;10.77;5.10;;;18.10;88.60;;;;;;5046950;28;20225;-71
2021/04/12 13:05:59;;;;;;;8.23;5.27;;;18.10;88.20;;;;;;5038930;28;20206;-71
2021/04/12 13:08:36;;;;;;;8.73;4.83;;;18.00;87.80;;;;;;5042759;28;20217;-72
2021/04/12 13:11:07;;;;;;;8.87;6.07;;;18.10;88.30;;;;;;5044447;28;20296;-71
2021/04/12 13:13:36;;;;;;;7.33;6.07;;;18.20;88.50;;;;;;5038600;28;20212;-71
2021/04/12 13:16:17;;;;;;;7.07;4.70;;;18.20;88.00;;;;;;5023316;28;20536;-72
2021/04/12 13:18:56;;;;;;;8.70;5.93;;;18.30;87.90;;;;;;5017169;28;20245;-72
2021/04/12 13:21:25;;;;;;;7.50;5.50;;;18.30;88.20;;;;;;5030473;28;20222;-72
2021/04/12 13:23:54;;;;;;;10.40;5.20;;;18.20;88.30;;;;;;5040593;28;20215;-72
2021/04/12 13:26:27;;;;;;;7.00;5.70;;;18.20;88.20;;;;;;5038110;28;20545;-71
2021/04/12 13:28:57;;;;;;;6.43;5.60;;;18.20;88.40;;;;;;5044031;28;20210;-72
2021/04/12 13:31:46;;;;;;;7.10;5.73;;;18.20;88.50;;;;;;5046948;28;20729;-72
2021/04/12 13:34:22;;;;;;;10.80;6.37;;;18.20;88.40;;;;;;5043842;28;20293;-71
2021/04/12 13:37:10;;;;;;;6.73;5.00;;;18.10;88.30;;;;;;5039315;28;20222;-71
2021/04/12 13:39:42;;;;;;;6.60;5.70;;;18.00;88.70;;;;;;5036665;28;20206;-71
2021/04/12 13:42:27;;;;;;;7.20;5.70;;;18.00;88.80;;;;;;5044449;28;20226;-71
2021/04/12 13:45:01;;;;;;;5.10;4.70;;;18.00;88.50;;;;;;5043847;28;20214;-72
2021/04/12 13:47:46;;;;;;;9.67;5.70;;;17.90;88.40;;;;;;5039274;28;20273;-72
2021/04/12 13:50:13;;;;;;;6.40;5.80;;;17.90;88.70;;;;;;5044816;28;20215;-72
2021/04/12 13:52:51;;;;;;;7.57;6.13;;;17.90;88.80;;;;;;5042866;28;20859;-72
2021/04/12 13:55:27;;;;;;;9.23;6.20;;;18.00;89.20;;;;;;5035239;28;20280;-72
2021/04/12 13:58:07;;;;;;;7.53;6.67;;;18.00;88.80;;;;;;5039696;28;20541;-72
2021/04/12 14:00:42;;;;;;;9.63;5.40;;;18.00;89.00;;;;;;5035861;28;20222;-72
2021/04/12 14:03:38;;;;;;;13.07;6.90;;;18.00;88.50;;;;;;5040277;28;20220;-72
2021/04/12 14:06:09;;;;;;;7.87;5.03;;;18.00;87.20;;;;;;5040003;28;20277;-71
2021/04/12 14:08:52;;;;;;;3.87;2.70;;;18.00;86.80;;;;;;5040310;28;20210;-71
2021/04/12 14:11:42;;;;;;;2.90;2.23;;;18.00;85.70;;;;;;5039192;28;20234;-72